createdAt,value
2023-04-26T00:02:08.501Z,99999.10
2023-04-26T00:04:40.683Z,99998.16
2023-04-26T00:07:13.921Z,99993.89
2023-04-26T00:09:46.070Z,99997.88
2023-04-26T00:12:18.120Z,99998.05
2023-04-26T00:14:50.272Z,99996.54
2023-04-26T00:17:22.348Z,99996.44
2023-04-26T00:19:54.433Z,100002.10
2023-04-26T00:22:26.696Z,100001.95
2023-04-26T00:24:59.116Z,100004.11
2023-04-26T00:27:31.899Z,100005.98
2023-04-26T00:30:03.957Z,100001.96
2023-04-26T00:32:36.399Z,100001.02
2023-04-26T00:35:11.981Z,100002.42
2023-04-26T00:37:43.996Z,99999.55
2023-04-26T00:40:17.080Z,100002.55
2023-04-26T00:42:49.930Z,100004.06
2023-04-26T00:45:22.213Z,100006.62
2023-04-26T00:47:54.545Z,100006.80
2023-04-26T00:50:27.316Z,100007.90
2023-04-26T00:53:00.262Z,100008.33
2023-04-26T00:55:34.613Z,100015.02
2023-04-26T00:58:06.762Z,100018.04
2023-04-26T01:00:38.831Z,100016.98
2023-04-26T01:03:11.334Z,100018.88
2023-04-26T01:05:44.596Z,100021.80
2023-04-26T01:08:20.826Z,100024.76
2023-04-26T01:10:53.290Z,100024.85
2023-04-26T01:13:26.262Z,100023.76
2023-04-26T01:16:01.918Z,100009.90
2023-04-26T01:18:34.681Z,100021.75
2023-04-26T01:21:06.988Z,100019.82
2023-04-26T01:23:39.043Z,100022.99
2023-04-26T01:26:11.671Z,100019.05
2023-04-26T01:28:43.657Z,100021.94
2023-04-26T01:31:16.093Z,100019.94
2023-04-26T01:33:48.312Z,100019.46
2023-04-26T01:36:20.536Z,100017.92
2023-04-26T01:38:53.706Z,100015.38
2023-04-26T01:41:27.166Z,100018.74
2023-04-26T01:43:59.566Z,100021.08
2023-04-26T01:46:32.658Z,100022.60
2023-04-26T01:49:04.872Z,100024.31
2023-04-26T01:51:37.078Z,100022.98
2023-04-26T01:54:11.636Z,100022.98
2023-04-26T01:56:43.728Z,100029.44
2023-04-26T01:59:15.851Z,100029.16
2023-04-26T02:01:48.027Z,100027.20
2023-04-26T02:04:20.242Z,100031.13
2023-04-26T02:06:52.344Z,100030.96
2023-04-26T02:09:24.358Z,100026.34
2023-04-26T02:12:00.186Z,100030.84
2023-04-26T02:14:33.407Z,100026.46
2023-04-26T02:17:06.739Z,100025.32
2023-04-26T02:19:40.153Z,100024.11
2023-04-26T02:22:13.318Z,100020.36
2023-04-26T02:24:47.279Z,100029.14
2023-04-26T02:27:19.479Z,100028.38
2023-04-26T02:29:51.605Z,100029.55
2023-04-26T02:32:23.803Z,100034.73
2023-04-26T02:34:56.061Z,100025.30
2023-04-26T02:37:28.471Z,100028.60
2023-04-26T02:40:00.494Z,100025.77
2023-04-26T02:42:32.709Z,100027.35
2023-04-26T02:45:05.369Z,100029.73
2023-04-26T02:47:38.774Z,100028.50
2023-04-26T02:50:12.386Z,100029.81
2023-04-26T02:52:44.688Z,100028.21
2023-04-26T02:55:17.390Z,100031.49
2023-04-26T02:57:49.252Z,100034.30
2023-04-26T03:00:22.146Z,100029.53
2023-04-26T03:02:54.601Z,100031.73
2023-04-26T03:05:27.094Z,100037.30
2023-04-26T03:07:59.195Z,100038.59
2023-04-26T03:10:31.300Z,100033.44
2023-04-26T03:13:04.545Z,100042.89
2023-04-26T03:15:36.827Z,100040.20
2023-04-26T03:18:08.803Z,100044.61
2023-04-26T03:20:41.049Z,100039.11
2023-04-26T03:23:12.987Z,100044.66
2023-04-26T03:25:45.541Z,100045.73
2023-04-26T03:28:16.996Z,100054.14
2023-04-26T03:30:49.989Z,100049.52
2023-04-26T03:33:22.526Z,100049.29
2023-04-26T03:35:54.648Z,100052.21
2023-04-26T03:38:26.640Z,100051.13
2023-04-26T03:40:58.857Z,100056.11
2023-04-26T03:43:31.190Z,100056.89
2023-04-26T03:46:07.122Z,100058.38
2023-04-26T03:48:39.976Z,100058.83
2023-04-26T03:51:10.697Z,100060.05
2023-04-26T03:53:43.645Z,100062.75
2023-04-26T03:56:16.119Z,100060.04
2023-04-26T03:58:49.295Z,100067.27
2023-04-26T04:01:21.865Z,100067.66
2023-04-26T04:03:55.750Z,100070.90
2023-04-26T04:06:28.099Z,100076.13
2023-04-26T04:09:00.420Z,100077.02
2023-04-26T04:11:33.103Z,100077.77
2023-04-26T04:14:07.456Z,100078.44
2023-04-26T04:16:39.767Z,100080.23
2023-04-26T04:19:13.286Z,100080.35
2023-04-26T04:21:45.731Z,100087.18
2023-04-26T04:24:17.920Z,100084.88
2023-04-26T04:26:51.465Z,100083.11
2023-04-26T04:29:23.976Z,100088.15
2023-04-26T04:31:56.775Z,100092.48
2023-04-26T04:34:29.216Z,100094.48
2023-04-26T04:37:00.590Z,100087.14
2023-04-26T04:39:32.815Z,100098.01
2023-04-26T04:42:05.371Z,100097.27
2023-04-26T04:44:38.124Z,100098.34
2023-04-26T04:47:10.352Z,100099.97
2023-04-26T04:49:43.448Z,100101.76
2023-04-26T04:52:17.565Z,100103.54
2023-04-26T04:54:51.512Z,100111.08
2023-04-26T04:57:24.720Z,100105.80
2023-04-26T04:59:58.391Z,100115.27
2023-04-26T05:02:31.959Z,100117.28
2023-04-26T05:05:06.781Z,100119.19
2023-04-26T05:07:40.329Z,100112.09
2023-04-26T05:10:17.816Z,100121.20
2023-04-26T05:12:50.546Z,100117.04
2023-04-26T05:15:23.570Z,100118.80
2023-04-26T05:17:56.865Z,100125.18
2023-04-26T05:20:31.752Z,100133.77
2023-04-26T05:23:11.140Z,100136.88
2023-04-26T05:25:44.482Z,100120.45
2023-04-26T05:28:37.398Z,100137.34
2023-04-26T05:31:26.213Z,100137.34
2023-04-26T05:34:09.340Z,100146.59
2023-04-26T05:36:43.916Z,100147.66
2023-04-26T05:39:16.532Z,100143.02
2023-04-26T05:41:51.284Z,100145.98
2023-04-26T05:44:25.061Z,100148.42
2023-04-26T05:47:00.630Z,100148.77
2023-04-26T05:49:36.646Z,100145.13
2023-04-26T05:52:11.272Z,100147.27
2023-04-26T05:54:45.801Z,100158.16
2023-04-26T05:57:22.056Z,100149.49
2023-04-26T05:59:56.481Z,100158.18
2023-04-26T06:02:32.293Z,100155.48
2023-04-26T06:05:16.248Z,100160.11
2023-04-26T06:07:48.961Z,100158.45
2023-04-26T06:10:24.876Z,100162.59
2023-04-26T06:12:57.631Z,100158.51
2023-04-26T06:15:32.068Z,100160.15
2023-04-26T06:18:08.852Z,100161.90
2023-04-26T06:20:43.035Z,100150.27
2023-04-26T06:23:21.017Z,100154.23
2023-04-26T06:25:54.525Z,100156.90
2023-04-26T06:28:29.867Z,100154.77
2023-04-26T06:31:04.074Z,100156.50
2023-04-26T06:33:37.335Z,100158.19
2023-04-26T06:36:16.976Z,100158.95
2023-04-26T06:38:54.286Z,100161.99
2023-04-26T06:41:28.258Z,100164.66
2023-04-26T06:44:01.466Z,100168.01
2023-04-26T06:46:38.803Z,100161.79
2023-04-26T06:49:14.816Z,100167.13
2023-04-26T06:51:47.749Z,100169.08
2023-04-26T06:54:22.293Z,100180.01
2023-04-26T06:56:55.494Z,100177.65
2023-04-26T06:59:30.062Z,100183.52
2023-04-26T07:02:04.784Z,100181.55
2023-04-26T07:04:38.111Z,100177.77
2023-04-26T07:07:13.207Z,100182.95
2023-04-26T07:09:46.877Z,100182.86
2023-04-26T07:12:20.253Z,100183.46
2023-04-26T07:14:53.008Z,100172.85
2023-04-26T07:17:29.241Z,100181.20
2023-04-26T07:20:01.923Z,100183.34
2023-04-26T07:22:34.356Z,100186.72
2023-04-26T07:25:09.572Z,100187.77
2023-04-26T07:27:42.292Z,100188.25
2023-04-26T07:30:26.321Z,100185.72
2023-04-26T07:33:07.049Z,100196.30
2023-04-26T07:35:40.655Z,100199.41
2023-04-26T07:38:20.842Z,100187.27
2023-04-26T07:40:54.170Z,100198.16
2023-04-26T07:43:30.585Z,100202.13
2023-04-26T07:46:07.401Z,100201.71
2023-04-26T07:48:43.993Z,100204.38
2023-04-26T07:51:17.107Z,100196.60
2023-04-26T07:53:51.519Z,100209.41
2023-04-26T07:56:26.719Z,100209.77
2023-04-26T07:59:02.342Z,100192.31
2023-04-26T08:01:36.237Z,100229.71
2023-04-26T08:04:09.689Z,100222.00
2023-04-26T08:06:45.292Z,100220.30
2023-04-26T08:09:20.064Z,100215.43
2023-04-26T08:11:52.741Z,100218.33
2023-04-26T08:14:24.585Z,100216.16
2023-04-26T08:16:58.345Z,100196.04
2023-04-26T08:19:33.941Z,100214.23
2023-04-26T08:22:10.251Z,100219.67
2023-04-26T08:24:43.682Z,100223.14
2023-04-26T08:27:16.487Z,100222.14
2023-04-26T08:29:50.164Z,100208.42
2023-04-26T08:32:23.326Z,100238.08
2023-04-26T08:34:57.604Z,100229.92
2023-04-26T08:37:31.882Z,100224.64
2023-04-26T08:40:09.925Z,100230.02
2023-04-26T08:42:46.721Z,100229.39
2023-04-26T08:45:19.457Z,100229.48
2023-04-26T08:47:55.204Z,100220.79
2023-04-26T08:50:31.394Z,100222.70
2023-04-26T08:53:04.397Z,100222.76
2023-04-26T08:55:41.236Z,100223.11
2023-04-26T08:58:16.299Z,100220.38
2023-04-26T09:00:54.024Z,100228.46
2023-04-26T09:03:28.328Z,100236.70
2023-04-26T09:06:07.090Z,100235.79
2023-04-26T09:08:45.191Z,100235.38
2023-04-26T09:11:18.259Z,100232.84
2023-04-26T09:13:52.783Z,100241.34
2023-04-26T09:16:41.175Z,100237.26
2023-04-26T09:19:15.744Z,100241.04
2023-04-26T09:21:50.859Z,100231.20
2023-04-26T09:24:26.698Z,100236.40
2023-04-26T09:27:06.629Z,100242.40
2023-04-26T09:29:43.648Z,100244.38
2023-04-26T09:32:15.707Z,100242.06
2023-04-26T09:34:53.754Z,100243.23
2023-04-26T09:37:31.234Z,100244.70
2023-04-26T09:40:11.937Z,100243.95
2023-04-26T09:42:44.680Z,100243.35
2023-04-26T09:45:17.936Z,100250.35
2023-04-26T09:47:51.775Z,100256.66
2023-04-26T09:50:35.445Z,100252.02
2023-04-26T09:53:08.854Z,100250.84
2023-04-26T09:55:41.314Z,100254.93
2023-04-26T09:58:14.083Z,100250.66
2023-04-26T10:00:45.679Z,100249.23
2023-04-26T10:03:22.143Z,100249.32
2023-04-26T10:05:59.839Z,100254.86
2023-04-26T10:08:32.797Z,100257.46
2023-04-26T10:11:07.545Z,100255.13
2023-04-26T10:13:43.160Z,100261.66
2023-04-26T10:16:15.456Z,100261.37
2023-04-26T10:18:49.377Z,100270.79
2023-04-26T10:21:28.937Z,100280.14
2023-04-26T10:24:03.025Z,100282.19
2023-04-26T10:26:56.962Z,100283.52
2023-04-26T10:30:13.991Z,100279.90
2023-04-26T10:33:17.870Z,100283.91
2023-04-26T10:36:13.913Z,100282.98
2023-04-26T10:39:22.201Z,100287.67
2023-04-26T10:42:19.008Z,100289.39
2023-04-26T10:44:53.312Z,100277.23
2023-04-26T10:47:34.029Z,100264.63
2023-04-26T10:50:12.167Z,100270.38
2023-04-26T10:53:10.806Z,100260.38
2023-04-26T10:55:47.742Z,100259.84
2023-04-26T10:58:31.932Z,100260.49
2023-04-26T11:01:18.123Z,100253.48
2023-04-26T11:06:58.042Z,100258.59
2023-04-26T11:09:42.453Z,100266.55
2023-04-26T11:12:18.005Z,100276.44
2023-04-26T11:14:50.669Z,100280.95
2023-04-26T11:17:27.043Z,100277.84
2023-04-26T11:20:07.514Z,100276.02
2023-04-26T11:22:44.884Z,100282.92
2023-04-26T11:25:17.541Z,100278.21
2023-04-26T11:27:50.939Z,100280.64
2023-04-26T11:30:25.153Z,100279.15
2023-04-26T11:32:58.771Z,100277.98
2023-04-26T11:35:34.507Z,100283.48
2023-04-26T11:38:09.114Z,100288.09
2023-04-26T11:40:44.009Z,100284.67
2023-04-26T11:43:17.084Z,100282.27
2023-04-26T11:45:49.960Z,100286.95
2023-04-26T11:48:22.771Z,100289.12
2023-04-26T11:50:54.845Z,100288.54
2023-04-26T11:53:40.775Z,100289.73
2023-04-26T11:56:23.204Z,100286.90
2023-04-26T11:58:58.433Z,100291.88
2023-04-26T12:01:36.887Z,100279.21
2023-04-26T12:04:13.290Z,100284.70
2023-04-26T12:06:49.740Z,100282.32
2023-04-26T12:09:27.199Z,100267.41
2023-04-26T12:12:02.408Z,100279.57
2023-04-26T12:14:36.770Z,100280.45
2023-04-26T12:17:11.368Z,100285.21
2023-04-26T12:19:44.945Z,100283.19
2023-04-26T12:22:23.014Z,100284.49
2023-04-26T12:25:08.143Z,100281.87
2023-04-26T12:27:41.291Z,100283.24
2023-04-26T12:30:15.130Z,100285.09
2023-04-26T12:32:48.307Z,100289.33
2023-04-26T12:35:27.609Z,100287.01
2023-04-26T12:38:02.295Z,100290.60
2023-04-26T12:40:35.834Z,100287.58
2023-04-26T12:43:12.290Z,100290.73
2023-04-26T12:45:44.236Z,100285.73
2023-04-26T12:48:16.806Z,100285.16
2023-04-26T12:50:51.092Z,100290.29
2023-04-26T12:53:23.132Z,100287.88
2023-04-26T12:55:55.112Z,100292.64
2023-04-26T12:58:28.604Z,100297.27
2023-04-26T13:01:00.870Z,100295.20
2023-04-26T13:03:33.089Z,100295.17
2023-04-26T13:06:05.655Z,100301.16
2023-04-26T13:08:37.557Z,100299.00
2023-04-26T13:11:09.401Z,100295.73
2023-04-26T13:13:45.180Z,100304.81
2023-04-26T13:16:18.071Z,100306.86
2023-04-26T13:18:49.976Z,100297.77
2023-04-26T13:21:22.087Z,100298.67
2023-04-26T13:23:53.930Z,100299.69
2023-04-26T13:26:27.801Z,100304.98
2023-04-26T13:29:00.268Z,100307.00
2023-04-26T13:31:32.311Z,100310.04
2023-04-26T13:34:07.065Z,100319.26
2023-04-26T13:36:38.920Z,100320.25
2023-04-26T13:39:10.716Z,100316.13
2023-04-26T13:41:42.596Z,100313.85
2023-04-26T13:44:15.680Z,100327.73
2023-04-26T13:46:47.811Z,100328.14
2023-04-26T13:49:22.029Z,100327.92
2023-04-26T13:51:54.225Z,100331.88
2023-04-26T13:54:27.010Z,100330.30
2023-04-26T13:56:59.340Z,100332.98
2023-04-26T13:59:31.430Z,100332.96
2023-04-26T14:02:03.833Z,100335.44
2023-04-26T14:04:36.534Z,100326.81
2023-04-26T14:07:07.603Z,100322.73
2023-04-26T14:09:39.577Z,100327.67
2023-04-26T14:12:11.530Z,100327.88
2023-04-26T14:14:43.932Z,100334.69
2023-04-26T14:17:15.800Z,100331.67
2023-04-26T14:19:47.573Z,100342.25
2023-04-26T14:22:19.673Z,100340.42
2023-04-26T14:24:51.668Z,100343.33
2023-04-26T14:27:23.772Z,100344.61
2023-04-26T14:29:55.836Z,100343.11
2023-04-26T14:32:27.936Z,100334.46
2023-04-26T14:34:59.933Z,100337.53
2023-04-26T14:37:31.835Z,100338.56
2023-04-26T14:40:04.682Z,100330.25
2023-04-26T14:42:37.368Z,100329.58
2023-04-26T14:45:11.755Z,100334.02
2023-04-26T14:47:43.660Z,100337.27
2023-04-26T14:50:15.571Z,100338.46
2023-04-26T14:52:47.672Z,100342.59
2023-04-26T14:55:22.392Z,100341.89
2023-04-26T14:57:54.412Z,100345.30
2023-04-26T15:00:26.891Z,100343.22
2023-04-26T15:02:59.318Z,100355.79
2023-04-26T15:05:31.830Z,100344.02
2023-04-26T15:08:04.067Z,100346.58
2023-04-26T15:10:36.044Z,100349.90
2023-04-26T15:13:08.488Z,100351.08
2023-04-26T15:15:39.384Z,100350.95
2023-04-26T15:18:11.391Z,100349.31
2023-04-26T15:20:43.668Z,100354.21
2023-04-26T15:23:15.854Z,100358.26
2023-04-26T15:25:48.231Z,100357.93
2023-04-26T15:28:20.370Z,100358.08
2023-04-26T15:30:52.752Z,100354.22
2023-04-26T15:33:24.721Z,100360.90
2023-04-26T15:35:56.557Z,100367.30
2023-04-26T15:38:28.588Z,100365.48
2023-04-26T15:41:00.620Z,100365.70
2023-04-26T15:43:33.059Z,100372.56
2023-04-26T15:46:05.253Z,100369.49
2023-04-26T15:48:37.383Z,100364.91
2023-04-26T15:51:09.881Z,100367.25
2023-04-26T15:53:44.104Z,100374.42
2023-04-26T15:56:19.509Z,100377.68
2023-04-26T15:58:51.933Z,100371.29
2023-04-26T16:01:24.681Z,100372.27
2023-04-26T16:03:55.448Z,100372.77
2023-04-26T16:06:28.522Z,100374.09
2023-04-26T16:09:02.202Z,100366.70
2023-04-26T16:11:34.524Z,100373.26
2023-04-26T16:14:06.591Z,100380.44
2023-04-26T16:16:40.522Z,100389.41
2023-04-26T16:19:14.533Z,100383.31
2023-04-26T16:21:47.030Z,100390.23
2023-04-26T16:24:20.850Z,100394.23
2023-04-26T16:26:53.381Z,100397.82
2023-04-26T16:29:25.495Z,100400.32
2023-04-26T16:31:57.418Z,100405.08
2023-04-26T16:34:29.308Z,100407.27
2023-04-26T16:37:01.140Z,100405.40
2023-04-26T16:39:33.204Z,100409.85
2023-04-26T16:42:05.402Z,100412.69
2023-04-26T16:44:37.205Z,100410.92
2023-04-26T16:47:09.330Z,100406.83
2023-04-26T16:49:41.293Z,100405.77
2023-04-26T16:52:13.185Z,100401.47
2023-04-26T16:54:45.154Z,100408.08
2023-04-26T16:57:17.312Z,100410.76
2023-04-26T16:59:49.191Z,100416.05
2023-04-26T17:02:21.573Z,100415.84
2023-04-26T17:04:54.022Z,100414.77
2023-04-26T17:07:25.929Z,100421.21
2023-04-26T17:09:57.816Z,100420.70
2023-04-26T17:12:29.673Z,100421.73
2023-04-26T17:15:04.265Z,100417.81
2023-04-26T17:17:36.810Z,100425.52
2023-04-26T17:20:13.424Z,100427.16
2023-04-26T17:22:45.349Z,100429.38
2023-04-26T17:25:17.642Z,100430.58
2023-04-26T17:27:49.455Z,100431.57
2023-04-26T17:30:22.086Z,100431.98
2023-04-26T17:32:52.948Z,100432.42
2023-04-26T17:35:25.110Z,100436.27
2023-04-26T17:37:56.928Z,100442.34
2023-04-26T17:40:28.903Z,100442.11
2023-04-26T17:43:00.683Z,100443.52
2023-04-26T17:45:32.471Z,100445.48
2023-04-26T17:48:04.499Z,100447.13
2023-04-26T17:50:38.001Z,100444.70
2023-04-26T17:53:10.755Z,100450.05
2023-04-26T17:55:42.704Z,100447.12
2023-04-26T17:58:15.307Z,100454.95
2023-04-26T18:00:47.220Z,100453.88
2023-04-26T18:03:20.229Z,100454.41
2023-04-26T18:05:52.481Z,100455.16
2023-04-26T18:08:24.310Z,100460.09
2023-04-26T18:10:56.382Z,100458.77
2023-04-26T18:13:28.234Z,100460.86
2023-04-26T18:16:00.017Z,100457.75
2023-04-26T18:18:31.906Z,100461.83
2023-04-26T18:21:03.751Z,100466.08
2023-04-26T18:23:36.258Z,100465.43
2023-04-26T18:26:08.174Z,100466.67
2023-04-26T18:28:40.063Z,100469.12
2023-04-26T18:31:11.868Z,100469.14
2023-04-26T18:33:43.811Z,100473.88
2023-04-26T18:36:16.349Z,100475.88
2023-04-26T18:38:48.410Z,100479.75
2023-04-26T18:41:20.168Z,100481.58
2023-04-26T18:43:53.592Z,100481.21
2023-04-26T18:46:25.460Z,100486.66
2023-04-26T18:48:57.684Z,100486.73
2023-04-26T18:51:29.655Z,100490.92
2023-04-26T18:54:02.393Z,100493.29
2023-04-26T18:56:32.697Z,100497.50
2023-04-26T18:59:04.520Z,100499.71
2023-04-26T19:01:36.468Z,100499.45
2023-04-26T19:04:09.226Z,100496.66
2023-04-26T19:06:42.474Z,100503.79
2023-04-26T19:09:15.208Z,100504.52
2023-04-26T19:11:46.300Z,100507.20
2023-04-26T19:14:18.411Z,100511.23
2023-04-26T19:16:50.881Z,100507.69
2023-04-26T19:19:22.869Z,100508.73
2023-04-26T19:21:54.725Z,100510.63
2023-04-26T19:24:26.762Z,100511.05
2023-04-26T19:26:58.738Z,100513.33
2023-04-26T19:29:30.599Z,100512.66
2023-04-26T19:32:04.740Z,100514.54
2023-04-26T19:34:38.730Z,100516.73
2023-04-26T19:37:11.363Z,100513.83
2023-04-26T19:39:43.670Z,100515.51
2023-04-26T19:42:15.435Z,100511.70
2023-04-26T19:44:47.209Z,100513.64
2023-04-26T19:47:19.034Z,100513.41
2023-04-26T19:49:53.080Z,100513.92
2023-04-26T19:52:25.042Z,100516.77
2023-04-26T19:54:57.394Z,100509.83
2023-04-26T19:57:29.585Z,100514.45
2023-04-26T20:00:01.708Z,100516.92
2023-04-26T20:02:33.751Z,100516.52
2023-04-26T20:05:07.114Z,100517.98
2023-04-26T20:07:39.542Z,100516.55
2023-04-26T20:10:12.901Z,100518.59
2023-04-26T20:12:44.961Z,100517.92
2023-04-26T20:15:17.684Z,100521.55
2023-04-26T20:17:48.101Z,100523.91
2023-04-26T20:20:20.196Z,100524.30
2023-04-26T20:22:52.056Z,100522.95
2023-04-26T20:25:24.414Z,100524.52
2023-04-26T20:27:56.730Z,100526.09
2023-04-26T20:30:29.373Z,100525.15
2023-04-26T20:33:01.975Z,100523.50
2023-04-26T20:35:33.924Z,100523.84
2023-04-26T20:38:06.331Z,100527.77
2023-04-26T20:40:41.126Z,100526.67
2023-04-26T20:43:13.882Z,100525.08
2023-04-26T20:45:44.437Z,100527.05
2023-04-26T20:48:16.382Z,100525.98
2023-04-26T20:50:48.219Z,100524.02
2023-04-26T20:53:20.147Z,100522.42
2023-04-26T20:55:54.154Z,100524.94
2023-04-26T20:58:26.862Z,100523.57
2023-04-26T21:00:59.290Z,100526.14
2023-04-26T21:03:34.598Z,100527.58
2023-04-26T21:06:06.956Z,100528.27
2023-04-26T21:08:38.951Z,100527.06
2023-04-26T21:11:11.417Z,100532.46
2023-04-26T21:13:43.807Z,100534.28
2023-04-26T21:16:16.467Z,100533.92
2023-04-26T21:18:49.041Z,100535.73
2023-04-26T21:21:21.597Z,100539.03
2023-04-26T21:23:54.200Z,100541.92
2023-04-26T21:26:26.387Z,100547.19
2023-04-26T21:28:58.568Z,100547.94
2023-04-26T21:31:30.989Z,100546.54
2023-04-26T21:34:03.283Z,100553.20
2023-04-26T21:36:36.149Z,100554.29
2023-04-26T21:39:09.317Z,100555.55
2023-04-26T21:41:42.006Z,100556.11
2023-04-26T21:44:14.510Z,100558.11
2023-04-26T21:46:46.716Z,100562.31
2023-04-26T21:49:19.689Z,100558.23
2023-04-26T21:51:51.878Z,100562.11
2023-04-26T21:54:24.125Z,100560.52
2023-04-26T21:56:56.342Z,100564.08
2023-04-26T21:59:28.942Z,100567.05
2023-04-26T22:02:01.317Z,100569.36
2023-04-26T22:04:34.797Z,100572.59
2023-04-26T22:07:07.535Z,100579.05
2023-04-26T22:09:38.300Z,100572.77
2023-04-26T22:12:12.523Z,100581.98
2023-04-26T22:14:44.789Z,100583.07
2023-04-26T22:17:15.948Z,100580.07
2023-04-26T22:19:48.573Z,100583.13
2023-04-26T22:22:20.891Z,100584.36
2023-04-26T22:24:53.216Z,100584.02
2023-04-26T22:27:25.882Z,100581.55
2023-04-26T22:29:58.886Z,100584.84
2023-04-26T22:32:33.008Z,100583.36
2023-04-26T22:35:05.618Z,100588.03
2023-04-26T22:37:38.097Z,100585.89
2023-04-26T22:40:12.831Z,100587.91
2023-04-26T22:42:45.641Z,100588.67
2023-04-26T22:45:16.448Z,100585.46
2023-04-26T22:47:48.516Z,100587.81
2023-04-26T22:50:20.935Z,100588.50
2023-04-26T22:52:52.813Z,100583.18
2023-04-26T22:55:24.976Z,100591.79
2023-04-26T22:57:56.844Z,100594.34
2023-04-26T23:00:28.671Z,100593.60
2023-04-26T23:03:00.633Z,100591.65
2023-04-26T23:05:32.576Z,100592.36
2023-04-26T23:08:04.334Z,100597.90
2023-04-26T23:10:36.203Z,100599.15
2023-04-26T23:13:08.074Z,100604.89
2023-04-26T23:15:40.052Z,100600.77
2023-04-26T23:18:11.797Z,100604.17
2023-04-26T23:20:43.718Z,100607.96
2023-04-26T23:23:16.014Z,100605.64
2023-04-26T23:25:47.933Z,100610.27
2023-04-26T23:28:19.773Z,100614.23
2023-04-26T23:30:52.327Z,100609.55
2023-04-26T23:33:25.427Z,100611.89
2023-04-26T23:35:58.468Z,100612.27
2023-04-26T23:38:30.304Z,100614.79
2023-04-26T23:41:02.256Z,100606.19
2023-04-26T23:43:34.583Z,100611.55
2023-04-26T23:46:06.995Z,100612.59
2023-04-26T23:48:38.983Z,100609.15
2023-04-26T23:51:10.837Z,100610.92
2023-04-26T23:53:42.649Z,100612.17
2023-04-26T23:56:14.550Z,100615.58
2023-04-26T23:58:46.520Z,100621.31
